sensor_id;sensor_type;location;lat;lon;timestamp;P1;durP1;ratioP1;P2;durP2;ratioP2
64387;SDS011;50709;52.648;4.764;2024-01-11T00:00:04;19.17;;;9.85;;
64387;SDS011;50709;52.648;4.764;2024-01-11T00:02:30;18.08;;;9.35;;
64387;SDS011;50709;52.648;4.764;2024-01-11T00:04:57;20.38;;;9.38;;
64387;SDS011;50709;52.648;4.764;2024-01-11T00:07:23;20.45;;;9.38;;
64387;SDS011;50709;52.648;4.764;2024-01-11T00:09:48;20.00;;;10.13;;
64387;SDS011;50709;52.648;4.764;2024-01-11T00:12:13;21.58;;;10.55;;
64387;SDS011;50709;52.648;4.764;2024-01-11T00:14:39;20.38;;;9.93;;
64387;SDS011;50709;52.648;4.764;2024-01-11T00:17:05;19.88;;;10.27;;
64387;SDS011;50709;52.648;4.764;2024-01-11T00:19:30;20.83;;;10.55;;
64387;SDS011;50709;52.648;4.764;2024-01-11T00:21:56;21.88;;;10.48;;
64387;SDS011;50709;52.648;4.764;2024-01-11T00:24:22;22.60;;;11.27;;
64387;SDS011;50709;52.648;4.764;2024-01-11T00:26:47;18.95;;;10.48;;
64387;SDS011;50709;52.648;4.764;2024-01-11T00:29:16;20.52;;;10.63;;
64387;SDS011;50709;52.648;4.764;2024-01-11T00:31:41;18.75;;;9.82;;
64387;SDS011;50709;52.648;4.764;2024-01-11T00:34:07;19.60;;;10.57;;
64387;SDS011;50709;52.648;4.764;2024-01-11T00:36:32;22.83;;;11.75;;
64387;SDS011;50709;52.648;4.764;2024-01-11T00:38:58;21.92;;;11.10;;
64387;SDS011;50709;52.648;4.764;2024-01-11T00:41:24;20.13;;;11.70;;
64387;SDS011;50709;52.648;4.764;2024-01-11T00:43:50;20.73;;;11.23;;
64387;SDS011;50709;52.648;4.764;2024-01-11T00:46:15;22.73;;;10.98;;
64387;SDS011;50709;52.648;4.764;2024-01-11T00:48:40;22.63;;;10.32;;
64387;SDS011;50709;52.648;4.764;2024-01-11T00:51:06;25.40;;;12.35;;
64387;SDS011;50709;52.648;4.764;2024-01-11T00:53:32;24.33;;;11.50;;
64387;SDS011;50709;52.648;4.764;2024-01-11T00:55:58;19.73;;;10.85;;
64387;SDS011;50709;52.648;4.764;2024-01-11T00:58:24;20.98;;;10.75;;
64387;SDS011;50709;52.648;4.764;2024-01-11T01:00:49;23.13;;;10.88;;
64387;SDS011;50709;52.648;4.764;2024-01-11T01:03:15;22.88;;;10.88;;
64387;SDS011;50709;52.648;4.764;2024-01-11T01:05:42;21.45;;;10.55;;
64387;SDS011;50709;52.648;4.764;2024-01-11T01:08:07;22.65;;;11.50;;
64387;SDS011;50709;52.648;4.764;2024-01-11T01:10:32;23.30;;;10.25;;
64387;SDS011;50709;52.648;4.764;2024-01-11T01:12:58;21.27;;;11.10;;
64387;SDS011;50709;52.648;4.764;2024-01-11T01:15:23;21.70;;;11.05;;
64387;SDS011;50709;52.648;4.764;2024-01-11T01:17:49;22.23;;;11.43;;
64387;SDS011;50709;52.648;4.764;2024-01-11T01:20:14;22.13;;;10.82;;
64387;SDS011;50709;52.648;4.764;2024-01-11T01:22:40;23.67;;;11.82;;
64387;SDS011;50709;52.648;4.764;2024-01-11T01:25:05;24.70;;;11.77;;
64387;SDS011;50709;52.648;4.764;2024-01-11T01:27:31;21.52;;;11.40;;
64387;SDS011;50709;52.648;4.764;2024-01-11T01:29:57;19.67;;;10.45;;
64387;SDS011;50709;52.648;4.764;2024-01-11T01:32:22;22.70;;;10.95;;
64387;SDS011;50709;52.648;4.764;2024-01-11T01:34:47;23.73;;;11.48;;
64387;SDS011;50709;52.648;4.764;2024-01-11T01:37:13;25.20;;;12.20;;
64387;SDS011;50709;52.648;4.764;2024-01-11T01:39:38;24.88;;;11.38;;
64387;SDS011;50709;52.648;4.764;2024-01-11T01:42:04;24.13;;;13.20;;
64387;SDS011;50709;52.648;4.764;2024-01-11T01:44:30;24.83;;;11.88;;
64387;SDS011;50709;52.648;4.764;2024-01-11T01:46:56;23.40;;;12.65;;
64387;SDS011;50709;52.648;4.764;2024-01-11T01:49:21;25.77;;;13.23;;
64387;SDS011;50709;52.648;4.764;2024-01-11T01:51:48;20.75;;;11.75;;
64387;SDS011;50709;52.648;4.764;2024-01-11T01:54:14;23.80;;;12.40;;
64387;SDS011;50709;52.648;4.764;2024-01-11T01:56:41;24.33;;;12.95;;
64387;SDS011;50709;52.648;4.764;2024-01-11T01:59:07;26.08;;;12.52;;
64387;SDS011;50709;52.648;4.764;2024-01-11T02:01:33;25.23;;;11.80;;
64387;SDS011;50709;52.648;4.764;2024-01-11T02:03:59;26.65;;;12.63;;
64387;SDS011;50709;52.648;4.764;2024-01-11T02:06:25;23.17;;;11.55;;
64387;SDS011;50709;52.648;4.764;2024-01-11T02:08:54;26.50;;;13.38;;
64387;SDS011;50709;52.648;4.764;2024-01-11T02:11:21;28.73;;;14.80;;
64387;SDS011;50709;52.648;4.764;2024-01-11T02:13:49;28.25;;;14.73;;
64387;SDS011;50709;52.648;4.764;2024-01-11T02:16:15;26.17;;;13.02;;
64387;SDS011;50709;52.648;4.764;2024-01-11T02:18:41;25.30;;;13.30;;
64387;SDS011;50709;52.648;4.764;2024-01-11T02:21:07;29.95;;;13.90;;
64387;SDS011;50709;52.648;4.764;2024-01-11T02:23:36;28.00;;;13.77;;
64387;SDS011;50709;52.648;4.764;2024-01-11T02:26:10;25.88;;;13.05;;
64387;SDS011;50709;52.648;4.764;2024-01-11T02:28:36;26.20;;;13.15;;
64387;SDS011;50709;52.648;4.764;2024-01-11T02:31:01;27.73;;;13.80;;
64387;SDS011;50709;52.648;4.764;2024-01-11T02:33:27;28.27;;;13.70;;
64387;SDS011;50709;52.648;4.764;2024-01-11T02:35:53;28.83;;;13.50;;
64387;SDS011;50709;52.648;4.764;2024-01-11T02:38:18;27.30;;;13.52;;
64387;SDS011;50709;52.648;4.764;2024-01-11T02:40:44;28.20;;;13.93;;
64387;SDS011;50709;52.648;4.764;2024-01-11T02:43:10;27.52;;;13.35;;
64387;SDS011;50709;52.648;4.764;2024-01-11T02:45:36;28.90;;;14.68;;
64387;SDS011;50709;52.648;4.764;2024-01-11T02:48:02;26.10;;;13.38;;
64387;SDS011;50709;52.648;4.764;2024-01-11T02:50:27;28.40;;;13.52;;
64387;SDS011;50709;52.648;4.764;2024-01-11T02:52:53;26.85;;;14.10;;
64387;SDS011;50709;52.648;4.764;2024-01-11T02:55:18;22.27;;;12.55;;
64387;SDS011;50709;52.648;4.764;2024-01-11T02:57:44;25.70;;;13.57;;
64387;SDS011;50709;52.648;4.764;2024-01-11T03:00:09;28.05;;;14.57;;
64387;SDS011;50709;52.648;4.764;2024-01-11T03:02:36;26.80;;;13.30;;
64387;SDS011;50709;52.648;4.764;2024-01-11T03:05:03;27.50;;;14.27;;
64387;SDS011;50709;52.648;4.764;2024-01-11T03:07:28;26.95;;;13.65;;
64387;SDS011;50709;52.648;4.764;2024-01-11T03:09:55;28.35;;;14.68;;
64387;SDS011;50709;52.648;4.764;2024-01-11T03:12:21;28.08;;;13.52;;
64387;SDS011;50709;52.648;4.764;2024-01-11T03:14:47;24.60;;;13.65;;
64387;SDS011;50709;52.648;4.764;2024-01-11T03:17:12;29.85;;;14.32;;
64387;SDS011;50709;52.648;4.764;2024-01-11T03:19:40;29.30;;;14.32;;
64387;SDS011;50709;52.648;4.764;2024-01-11T03:22:06;27.42;;;14.75;;
64387;SDS011;50709;52.648;4.764;2024-01-11T03:24:32;26.88;;;14.18;;
64387;SDS011;50709;52.648;4.764;2024-01-11T03:26:57;29.80;;;14.35;;
64387;SDS011;50709;52.648;4.764;2024-01-11T03:29:23;27.30;;;13.20;;
64387;SDS011;50709;52.648;4.764;2024-01-11T03:31:48;28.73;;;14.18;;
64387;SDS011;50709;52.648;4.764;2024-01-11T03:34:14;29.85;;;14.20;;
64387;SDS011;50709;52.648;4.764;2024-01-11T03:36:39;25.98;;;13.27;;
64387;SDS011;50709;52.648;4.764;2024-01-11T03:39:05;27.90;;;14.40;;
64387;SDS011;50709;52.648;4.764;2024-01-11T03:41:31;28.63;;;14.15;;
64387;SDS011;50709;52.648;4.764;2024-01-11T03:43:57;30.40;;;14.27;;
64387;SDS011;50709;52.648;4.764;2024-01-11T03:46:22;29.15;;;13.35;;
64387;SDS011;50709;52.648;4.764;2024-01-11T03:48:48;27.42;;;14.80;;
64387;SDS011;50709;52.648;4.764;2024-01-11T03:51:13;25.48;;;13.45;;
64387;SDS011;50709;52.648;4.764;2024-01-11T03:53:39;28.60;;;13.80;;
64387;SDS011;50709;52.648;4.764;2024-01-11T03:56:04;27.50;;;15.45;;
64387;SDS011;50709;52.648;4.764;2024-01-11T03:58:30;27.45;;;13.88;;
64387;SDS011;50709;52.648;4.764;2024-01-11T04:00:55;32.70;;;14.80;;
64387;SDS011;50709;52.648;4.764;2024-01-11T04:03:21;31.45;;;14.70;;
64387;SDS011;50709;52.648;4.764;2024-01-11T04:05:46;33.05;;;15.75;;
64387;SDS011;50709;52.648;4.764;2024-01-11T04:08:13;31.15;;;14.23;;
64387;SDS011;50709;52.648;4.764;2024-01-11T04:10:38;31.90;;;14.07;;
64387;SDS011;50709;52.648;4.764;2024-01-11T04:13:04;30.85;;;14.77;;
64387;SDS011;50709;52.648;4.764;2024-01-11T04:15:31;31.83;;;15.43;;
64387;SDS011;50709;52.648;4.764;2024-01-11T04:17:57;32.15;;;14.55;;
64387;SDS011;50709;52.648;4.764;2024-01-11T04:20:22;27.67;;;14.60;;
64387;SDS011;50709;52.648;4.764;2024-01-11T04:22:49;28.58;;;15.07;;
64387;SDS011;50709;52.648;4.764;2024-01-11T04:25:14;30.10;;;15.02;;
64387;SDS011;50709;52.648;4.764;2024-01-11T04:27:40;28.00;;;12.75;;
64387;SDS011;50709;52.648;4.764;2024-01-11T04:30:06;26.73;;;14.00;;
64387;SDS011;50709;52.648;4.764;2024-01-11T04:32:32;30.23;;;14.20;;
64387;SDS011;50709;52.648;4.764;2024-01-11T04:34:57;27.45;;;13.70;;
64387;SDS011;50709;52.648;4.764;2024-01-11T04:37:23;27.92;;;13.70;;
64387;SDS011;50709;52.648;4.764;2024-01-11T04:39:48;28.80;;;14.32;;
64387;SDS011;50709;52.648;4.764;2024-01-11T04:42:14;31.02;;;15.00;;
64387;SDS011;50709;52.648;4.764;2024-01-11T04:44:40;27.65;;;13.80;;
64387;SDS011;50709;52.648;4.764;2024-01-11T04:47:05;27.98;;;12.95;;
64387;SDS011;50709;52.648;4.764;2024-01-11T04:49:31;29.85;;;15.05;;
64387;SDS011;50709;52.648;4.764;2024-01-11T04:51:56;26.33;;;13.50;;
64387;SDS011;50709;52.648;4.764;2024-01-11T04:54:22;32.60;;;15.10;;
64387;SDS011;50709;52.648;4.764;2024-01-11T04:56:47;31.13;;;14.95;;
64387;SDS011;50709;52.648;4.764;2024-01-11T04:59:12;28.50;;;14.02;;
64387;SDS011;50709;52.648;4.764;2024-01-11T05:01:38;26.77;;;14.32;;
64387;SDS011;50709;52.648;4.764;2024-01-11T05:04:03;31.75;;;14.75;;
64387;SDS011;50709;52.648;4.764;2024-01-11T05:06:29;29.40;;;13.07;;
64387;SDS011;50709;52.648;4.764;2024-01-11T05:08:55;25.95;;;13.98;;
64387;SDS011;50709;52.648;4.764;2024-01-11T05:11:21;29.90;;;13.82;;
64387;SDS011;50709;52.648;4.764;2024-01-11T05:13:49;27.98;;;13.82;;
64387;SDS011;50709;52.648;4.764;2024-01-11T05:16:21;28.27;;;13.85;;
64387;SDS011;50709;52.648;4.764;2024-01-11T05:18:48;32.72;;;13.80;;
64387;SDS011;50709;52.648;4.764;2024-01-11T05:21:14;30.35;;;13.90;;
64387;SDS011;50709;52.648;4.764;2024-01-11T05:26:41;27.20;;;14.23;;
64387;SDS011;50709;52.648;4.764;2024-01-11T05:29:07;30.40;;;15.00;;
64387;SDS011;50709;52.648;4.764;2024-01-11T05:31:32;29.30;;;13.65;;
64387;SDS011;50709;52.648;4.764;2024-01-11T05:33:58;29.33;;;14.05;;
64387;SDS011;50709;52.648;4.764;2024-01-11T05:36:23;28.02;;;13.75;;
64387;SDS011;50709;52.648;4.764;2024-01-11T05:38:49;27.90;;;14.07;;
64387;SDS011;50709;52.648;4.764;2024-01-11T05:41:15;27.10;;;14.75;;
64387;SDS011;50709;52.648;4.764;2024-01-11T05:43:41;30.27;;;14.68;;
64387;SDS011;50709;52.648;4.764;2024-01-11T05:46:41;30.75;;;15.43;;
64387;SDS011;50709;52.648;4.764;2024-01-11T05:48:59;28.17;;;14.35;;
64387;SDS011;50709;52.648;4.764;2024-01-11T05:51:25;26.58;;;13.73;;
64387;SDS011;50709;52.648;4.764;2024-01-11T05:53:52;26.77;;;14.52;;
64387;SDS011;50709;52.648;4.764;2024-01-11T05:56:18;26.13;;;13.80;;
64387;SDS011;50709;52.648;4.764;2024-01-11T05:58:44;26.88;;;14.82;;
64387;SDS011;50709;52.648;4.764;2024-01-11T06:01:09;26.98;;;14.25;;
64387;SDS011;50709;52.648;4.764;2024-01-11T06:03:35;29.70;;;14.70;;
64387;SDS011;50709;52.648;4.764;2024-01-11T06:06:00;29.42;;;14.52;;
64387;SDS011;50709;52.648;4.764;2024-01-11T06:08:27;30.50;;;13.35;;
64387;SDS011;50709;52.648;4.764;2024-01-11T06:10:53;26.23;;;13.55;;
64387;SDS011;50709;52.648;4.764;2024-01-11T06:13:19;25.48;;;13.63;;
64387;SDS011;50709;52.648;4.764;2024-01-11T06:15:44;25.15;;;13.18;;
64387;SDS011;50709;52.648;4.764;2024-01-11T06:18:09;31.17;;;14.88;;
64387;SDS011;50709;52.648;4.764;2024-01-11T06:20:35;25.33;;;14.40;;
64387;SDS011;50709;52.648;4.764;2024-01-11T06:23:00;27.55;;;14.02;;
64387;SDS011;50709;52.648;4.764;2024-01-11T06:25:26;27.33;;;14.20;;
64387;SDS011;50709;52.648;4.764;2024-01-11T06:27:51;22.60;;;13.75;;
64387;SDS011;50709;52.648;4.764;2024-01-11T06:30:17;27.08;;;14.80;;
64387;SDS011;50709;52.648;4.764;2024-01-11T06:32:42;28.20;;;14.00;;
64387;SDS011;50709;52.648;4.764;2024-01-11T06:35:08;25.48;;;13.82;;
64387;SDS011;50709;52.648;4.764;2024-01-11T06:37:33;24.48;;;13.38;;
64387;SDS011;50709;52.648;4.764;2024-01-11T06:40:00;30.80;;;14.75;;
64387;SDS011;50709;52.648;4.764;2024-01-11T06:42:28;25.40;;;13.73;;
64387;SDS011;50709;52.648;4.764;2024-01-11T06:44:54;26.30;;;13.40;;
64387;SDS011;50709;52.648;4.764;2024-01-11T06:47:19;25.65;;;12.48;;
64387;SDS011;50709;52.648;4.764;2024-01-11T06:49:46;21.83;;;12.00;;
64387;SDS011;50709;52.648;4.764;2024-01-11T06:52:32;25.02;;;13.52;;
64387;SDS011;50709;52.648;4.764;2024-01-11T06:54:58;25.15;;;12.40;;
64387;SDS011;50709;52.648;4.764;2024-01-11T06:57:23;23.85;;;12.60;;
64387;SDS011;50709;52.648;4.764;2024-01-11T06:59:49;22.02;;;12.50;;
64387;SDS011;50709;52.648;4.764;2024-01-11T07:02:15;22.15;;;11.90;;
64387;SDS011;50709;52.648;4.764;2024-01-11T07:04:43;26.52;;;13.82;;
64387;SDS011;50709;52.648;4.764;2024-01-11T07:07:10;26.83;;;12.70;;
64387;SDS011;50709;52.648;4.764;2024-01-11T07:09:35;24.58;;;13.38;;
64387;SDS011;50709;52.648;4.764;2024-01-11T07:12:00;20.90;;;11.98;;
64387;SDS011;50709;52.648;4.764;2024-01-11T07:14:27;28.30;;;14.10;;
64387;SDS011;50709;52.648;4.764;2024-01-11T07:16:52;23.63;;;12.57;;
64387;SDS011;50709;52.648;4.764;2024-01-11T07:19:18;23.75;;;12.60;;
64387;SDS011;50709;52.648;4.764;2024-01-11T07:21:47;24.45;;;12.77;;
64387;SDS011;50709;52.648;4.764;2024-01-11T07:24:12;26.38;;;13.48;;
64387;SDS011;50709;52.648;4.764;2024-01-11T07:26:38;25.13;;;12.77;;
64387;SDS011;50709;52.648;4.764;2024-01-11T07:29:03;17.10;;;9.45;;
64387;SDS011;50709;52.648;4.764;2024-01-11T07:31:29;27.23;;;13.07;;
64387;SDS011;50709;52.648;4.764;2024-01-11T07:33:54;24.90;;;11.63;;
64387;SDS011;50709;52.648;4.764;2024-01-11T07:36:20;23.15;;;13.00;;
64387;SDS011;50709;52.648;4.764;2024-01-11T07:38:45;21.30;;;12.05;;
64387;SDS011;50709;52.648;4.764;2024-01-11T07:41:12;22.55;;;11.68;;
64387;SDS011;50709;52.648;4.764;2024-01-11T07:43:39;26.90;;;13.40;;
64387;SDS011;50709;52.648;4.764;2024-01-11T07:46:05;23.40;;;12.05;;
64387;SDS011;50709;52.648;4.764;2024-01-11T07:48:32;22.20;;;13.45;;
64387;SDS011;50709;52.648;4.764;2024-01-11T07:50:58;25.95;;;13.98;;
64387;SDS011;50709;52.648;4.764;2024-01-11T07:53:24;24.88;;;13.32;;
64387;SDS011;50709;52.648;4.764;2024-01-11T07:55:50;23.67;;;13.05;;
64387;SDS011;50709;52.648;4.764;2024-01-11T07:58:16;22.00;;;12.38;;
64387;SDS011;50709;52.648;4.764;2024-01-11T08:00:41;27.20;;;13.90;;
64387;SDS011;50709;52.648;4.764;2024-01-11T08:03:07;23.70;;;12.60;;
64387;SDS011;50709;52.648;4.764;2024-01-11T08:05:34;23.02;;;12.07;;
64387;SDS011;50709;52.648;4.764;2024-01-11T08:07:59;25.17;;;12.10;;
64387;SDS011;50709;52.648;4.764;2024-01-11T08:10:28;18.80;;;10.50;;
64387;SDS011;50709;52.648;4.764;2024-01-11T08:12:57;23.45;;;11.98;;
64387;SDS011;50709;52.648;4.764;2024-01-11T08:15:24;15.77;;;8.45;;
64387;SDS011;50709;52.648;4.764;2024-01-11T08:17:53;22.67;;;12.82;;
64387;SDS011;50709;52.648;4.764;2024-01-11T08:20:18;22.73;;;12.98;;
64387;SDS011;50709;52.648;4.764;2024-01-11T08:22:44;26.48;;;13.85;;
64387;SDS011;50709;52.648;4.764;2024-01-11T08:25:12;28.27;;;14.20;;
64387;SDS011;50709;52.648;4.764;2024-01-11T08:27:38;26.13;;;13.95;;
64387;SDS011;50709;52.648;4.764;2024-01-11T08:30:05;25.70;;;13.98;;
64387;SDS011;50709;52.648;4.764;2024-01-11T08:32:32;28.60;;;14.93;;
64387;SDS011;50709;52.648;4.764;2024-01-11T08:35:04;25.30;;;13.63;;
64387;SDS011;50709;52.648;4.764;2024-01-11T08:37:30;22.85;;;12.13;;
64387;SDS011;50709;52.648;4.764;2024-01-11T08:39:55;22.88;;;12.13;;
64387;SDS011;50709;52.648;4.764;2024-01-11T08:42:21;20.80;;;11.88;;
64387;SDS011;50709;52.648;4.764;2024-01-11T08:44:46;22.50;;;11.85;;
64387;SDS011;50709;52.648;4.764;2024-01-11T08:47:12;24.55;;;12.80;;
64387;SDS011;50709;52.648;4.764;2024-01-11T08:49:40;25.00;;;12.57;;
64387;SDS011;50709;52.648;4.764;2024-01-11T08:52:06;26.58;;;13.23;;
64387;SDS011;50709;52.648;4.764;2024-01-11T08:54:33;26.63;;;13.55;;
64387;SDS011;50709;52.648;4.764;2024-01-11T08:56:59;27.85;;;14.10;;
64387;SDS011;50709;52.648;4.764;2024-01-11T08:59:25;21.63;;;12.10;;
64387;SDS011;50709;52.648;4.764;2024-01-11T09:01:53;22.92;;;12.68;;
64387;SDS011;50709;52.648;4.764;2024-01-11T09:04:19;24.75;;;13.63;;
64387;SDS011;50709;52.648;4.764;2024-01-11T09:06:44;27.20;;;14.25;;
64387;SDS011;50709;52.648;4.764;2024-01-11T09:09:10;23.75;;;13.45;;
64387;SDS011;50709;52.648;4.764;2024-01-11T09:11:38;25.48;;;13.07;;
64387;SDS011;50709;52.648;4.764;2024-01-11T09:14:06;23.88;;;13.20;;
64387;SDS011;50709;52.648;4.764;2024-01-11T09:16:32;26.75;;;13.55;;
64387;SDS011;50709;52.648;4.764;2024-01-11T09:18:58;23.33;;;12.35;;
64387;SDS011;50709;52.648;4.764;2024-01-11T09:21:25;24.00;;;12.88;;
64387;SDS011;50709;52.648;4.764;2024-01-11T09:23:51;18.83;;;10.18;;
64387;SDS011;50709;52.648;4.764;2024-01-11T09:26:16;25.60;;;14.00;;
64387;SDS011;50709;52.648;4.764;2024-01-11T09:28:42;26.83;;;13.80;;
64387;SDS011;50709;52.648;4.764;2024-01-11T09:31:07;24.08;;;12.00;;
64387;SDS011;50709;52.648;4.764;2024-01-11T09:33:33;23.48;;;12.95;;
64387;SDS011;50709;52.648;4.764;2024-01-11T09:35:58;26.10;;;13.38;;
64387;SDS011;50709;52.648;4.764;2024-01-11T09:38:24;23.52;;;12.32;;
64387;SDS011;50709;52.648;4.764;2024-01-11T09:40:52;22.55;;;12.38;;
64387;SDS011;50709;52.648;4.764;2024-01-11T09:43:30;27.35;;;13.05;;
64387;SDS011;50709;52.648;4.764;2024-01-11T09:45:58;23.63;;;13.10;;
64387;SDS011;50709;52.648;4.764;2024-01-11T09:48:25;25.55;;;12.23;;
64387;SDS011;50709;52.648;4.764;2024-01-11T09:50:52;23.75;;;11.88;;
64387;SDS011;50709;52.648;4.764;2024-01-11T09:53:19;26.30;;;12.73;;
64387;SDS011;50709;52.648;4.764;2024-01-11T09:55:48;22.25;;;12.27;;
64387;SDS011;50709;52.648;4.764;2024-01-11T09:58:14;25.55;;;12.20;;
64387;SDS011;50709;52.648;4.764;2024-01-11T10:00:40;25.75;;;13.50;;
64387;SDS011;50709;52.648;4.764;2024-01-11T10:03:06;22.52;;;12.80;;
64387;SDS011;50709;52.648;4.764;2024-01-11T10:05:32;25.35;;;13.23;;
64387;SDS011;50709;52.648;4.764;2024-01-11T10:08:00;23.02;;;13.52;;
64387;SDS011;50709;52.648;4.764;2024-01-11T10:10:25;22.98;;;12.32;;
64387;SDS011;50709;52.648;4.764;2024-01-11T10:12:53;21.20;;;12.25;;
64387;SDS011;50709;52.648;4.764;2024-01-11T10:15:20;25.33;;;13.55;;
64387;SDS011;50709;52.648;4.764;2024-01-11T10:17:49;24.60;;;12.63;;
64387;SDS011;50709;52.648;4.764;2024-01-11T10:20:15;22.00;;;12.20;;
64387;SDS011;50709;52.648;4.764;2024-01-11T10:22:42;21.15;;;11.48;;
64387;SDS011;50709;52.648;4.764;2024-01-11T10:25:12;24.15;;;13.52;;
64387;SDS011;50709;52.648;4.764;2024-01-11T10:27:42;22.67;;;12.68;;
64387;SDS011;50709;52.648;4.764;2024-01-11T10:30:09;23.10;;;11.88;;
64387;SDS011;50709;52.648;4.764;2024-01-11T10:32:35;22.92;;;12.90;;
64387;SDS011;50709;52.648;4.764;2024-01-11T10:35:01;23.52;;;12.95;;
64387;SDS011;50709;52.648;4.764;2024-01-11T10:37:30;27.65;;;14.50;;
64387;SDS011;50709;52.648;4.764;2024-01-11T10:40:04;24.73;;;12.50;;
64387;SDS011;50709;52.648;4.764;2024-01-11T10:42:44;24.88;;;12.82;;
64387;SDS011;50709;52.648;4.764;2024-01-11T10:45:14;22.33;;;12.07;;
64387;SDS011;50709;52.648;4.764;2024-01-11T10:50:16;22.17;;;12.45;;
64387;SDS011;50709;52.648;4.764;2024-01-11T10:52:47;22.77;;;13.15;;
64387;SDS011;50709;52.648;4.764;2024-01-11T10:55:28;26.85;;;12.38;;
64387;SDS011;50709;52.648;4.764;2024-01-11T10:57:59;24.63;;;13.75;;
64387;SDS011;50709;52.648;4.764;2024-01-11T11:00:25;22.55;;;13.13;;
64387;SDS011;50709;52.648;4.764;2024-01-11T11:02:54;24.58;;;14.25;;
64387;SDS011;50709;52.648;4.764;2024-01-11T11:05:20;26.80;;;14.52;;
64387;SDS011;50709;52.648;4.764;2024-01-11T11:07:49;24.35;;;12.40;;
64387;SDS011;50709;52.648;4.764;2024-01-11T11:10:15;24.90;;;13.50;;
64387;SDS011;50709;52.648;4.764;2024-01-11T11:12:43;21.85;;;12.20;;
64387;SDS011;50709;52.648;4.764;2024-01-11T11:15:10;22.40;;;12.88;;
64387;SDS011;50709;52.648;4.764;2024-01-11T11:17:37;22.02;;;12.43;;
64387;SDS011;50709;52.648;4.764;2024-01-11T11:20:05;24.13;;;12.32;;
64387;SDS011;50709;52.648;4.764;2024-01-11T11:22:40;22.83;;;12.68;;
64387;SDS011;50709;52.648;4.764;2024-01-11T11:25:07;20.00;;;10.73;;
64387;SDS011;50709;52.648;4.764;2024-01-11T11:27:33;19.70;;;10.57;;
64387;SDS011;50709;52.648;4.764;2024-01-11T11:29:58;30.85;;;14.25;;
64387;SDS011;50709;52.648;4.764;2024-01-11T11:32:36;26.35;;;13.40;;
64387;SDS011;50709;52.648;4.764;2024-01-11T11:35:03;22.17;;;11.93;;
64387;SDS011;50709;52.648;4.764;2024-01-11T11:37:30;20.98;;;11.10;;
64387;SDS011;50709;52.648;4.764;2024-01-11T11:39:57;19.15;;;10.13;;
64387;SDS011;50709;52.648;4.764;2024-01-11T11:42:24;23.27;;;11.88;;
64387;SDS011;50709;52.648;4.764;2024-01-11T11:44:50;21.65;;;12.25;;
64387;SDS011;50709;52.648;4.764;2024-01-11T11:47:20;20.02;;;12.02;;
64387;SDS011;50709;52.648;4.764;2024-01-11T11:52:58;25.48;;;13.27;;
64387;SDS011;50709;52.648;4.764;2024-01-11T11:55:23;23.83;;;12.02;;
64387;SDS011;50709;52.648;4.764;2024-01-11T11:57:53;21.88;;;11.60;;
64387;SDS011;50709;52.648;4.764;2024-01-11T12:00:19;25.88;;;11.60;;
64387;SDS011;50709;52.648;4.764;2024-01-11T12:02:46;24.63;;;12.25;;
64387;SDS011;50709;52.648;4.764;2024-01-11T12:05:13;21.75;;;12.70;;
64387;SDS011;50709;52.648;4.764;2024-01-11T12:07:39;22.80;;;12.93;;
64387;SDS011;50709;52.648;4.764;2024-01-11T12:10:14;20.23;;;11.95;;
64387;SDS011;50709;52.648;4.764;2024-01-11T12:12:40;21.38;;;12.10;;
64387;SDS011;50709;52.648;4.764;2024-01-11T12:15:05;20.73;;;11.25;;
64387;SDS011;50709;52.648;4.764;2024-01-11T12:17:32;22.58;;;11.50;;
64387;SDS011;50709;52.648;4.764;2024-01-11T12:19:58;19.60;;;11.40;;
64387;SDS011;50709;52.648;4.764;2024-01-11T12:22:23;20.30;;;10.93;;
64387;SDS011;50709;52.648;4.764;2024-01-11T12:24:49;20.52;;;11.35;;
64387;SDS011;50709;52.648;4.764;2024-01-11T12:27:15;19.60;;;10.32;;
64387;SDS011;50709;52.648;4.764;2024-01-11T12:29:40;21.38;;;11.52;;
64387;SDS011;50709;52.648;4.764;2024-01-11T12:32:06;19.60;;;10.82;;
64387;SDS011;50709;52.648;4.764;2024-01-11T12:34:37;19.25;;;10.38;;
64387;SDS011;50709;52.648;4.764;2024-01-11T12:37:22;17.50;;;10.75;;
64387;SDS011;50709;52.648;4.764;2024-01-11T12:40:40;18.70;;;9.90;;
64387;SDS011;50709;52.648;4.764;2024-01-11T12:43:06;16.70;;;9.60;;
64387;SDS011;50709;52.648;4.764;2024-01-11T12:45:32;19.77;;;10.75;;
64387;SDS011;50709;52.648;4.764;2024-01-11T12:47:59;19.00;;;10.57;;
64387;SDS011;50709;52.648;4.764;2024-01-11T12:50:25;18.92;;;10.52;;
64387;SDS011;50709;52.648;4.764;2024-01-11T12:53:10;19.13;;;10.13;;
64387;SDS011;50709;52.648;4.764;2024-01-11T12:55:43;18.42;;;10.25;;
64387;SDS011;50709;52.648;4.764;2024-01-11T12:58:12;14.35;;;8.93;;
64387;SDS011;50709;52.648;4.764;2024-01-11T13:00:38;20.42;;;10.95;;
64387;SDS011;50709;52.648;4.764;2024-01-11T13:03:04;15.73;;;8.52;;
64387;SDS011;50709;52.648;4.764;2024-01-11T13:05:30;18.15;;;10.05;;
64387;SDS011;50709;52.648;4.764;2024-01-11T13:08:00;17.13;;;9.40;;
64387;SDS011;50709;52.648;4.764;2024-01-11T13:10:35;16.35;;;8.88;;
64387;SDS011;50709;52.648;4.764;2024-01-11T13:13:01;15.00;;;8.43;;
64387;SDS011;50709;52.648;4.764;2024-01-11T13:15:27;16.63;;;9.57;;
64387;SDS011;50709;52.648;4.764;2024-01-11T13:17:54;16.67;;;9.38;;
64387;SDS011;50709;52.648;4.764;2024-01-11T13:20:21;18.13;;;8.57;;
64387;SDS011;50709;52.648;4.764;2024-01-11T13:22:46;14.85;;;8.60;;
64387;SDS011;50709;52.648;4.764;2024-01-11T13:25:12;16.40;;;8.35;;
64387;SDS011;50709;52.648;4.764;2024-01-11T13:27:37;13.73;;;7.82;;
64387;SDS011;50709;52.648;4.764;2024-01-11T13:30:03;14.48;;;7.18;;
64387;SDS011;50709;52.648;4.764;2024-01-11T13:32:29;15.02;;;7.97;;
64387;SDS011;50709;52.648;4.764;2024-01-11T13:35:00;14.73;;;8.10;;
64387;SDS011;50709;52.648;4.764;2024-01-11T13:37:26;13.73;;;7.47;;
64387;SDS011;50709;52.648;4.764;2024-01-11T13:39:51;12.02;;;6.82;;
64387;SDS011;50709;52.648;4.764;2024-01-11T13:42:16;14.43;;;7.15;;
64387;SDS011;50709;52.648;4.764;2024-01-11T13:44:42;12.55;;;7.20;;
64387;SDS011;50709;52.648;4.764;2024-01-11T13:47:08;15.15;;;7.38;;
64387;SDS011;50709;52.648;4.764;2024-01-11T13:49:34;13.63;;;7.38;;
64387;SDS011;50709;52.648;4.764;2024-01-11T13:51:59;12.48;;;6.70;;
64387;SDS011;50709;52.648;4.764;2024-01-11T13:54:25;11.98;;;5.90;;
64387;SDS011;50709;52.648;4.764;2024-01-11T13:56:50;13.15;;;6.00;;
64387;SDS011;50709;52.648;4.764;2024-01-11T13:59:19;17.40;;;5.88;;
64387;SDS011;50709;52.648;4.764;2024-01-11T14:01:44;14.40;;;6.40;;
64387;SDS011;50709;52.648;4.764;2024-01-11T14:04:10;12.93;;;5.85;;
64387;SDS011;50709;52.648;4.764;2024-01-11T14:06:36;11.93;;;5.40;;
64387;SDS011;50709;52.648;4.764;2024-01-11T14:09:02;10.77;;;4.28;;
64387;SDS011;50709;52.648;4.764;2024-01-11T14:11:29;17.17;;;4.82;;
64387;SDS011;50709;52.648;4.764;2024-01-11T14:13:55;15.35;;;5.05;;
64387;SDS011;50709;52.648;4.764;2024-01-11T14:16:20;9.05;;;4.05;;
64387;SDS011;50709;52.648;4.764;2024-01-11T14:18:46;13.07;;;4.13;;
64387;SDS011;50709;52.648;4.764;2024-01-11T14:21:11;12.50;;;3.80;;
64387;SDS011;50709;52.648;4.764;2024-01-11T14:23:37;14.30;;;4.60;;
64387;SDS011;50709;52.648;4.764;2024-01-11T14:26:03;9.95;;;4.45;;
64387;SDS011;50709;52.648;4.764;2024-01-11T14:28:28;13.93;;;3.80;;